createdAt,value
2023-09-10T00:02:03.356Z,100452.44
2023-09-10T00:07:11.617Z,100453.84
2023-09-10T00:12:17.310Z,100429.72
2023-09-10T00:17:22.991Z,100421.22
2023-09-10T00:22:29.949Z,100446.56
2023-09-10T00:27:35.698Z,100438.09
2023-09-10T00:32:41.376Z,100434.59
2023-09-10T00:37:47.584Z,100453.13
2023-09-10T00:42:53.288Z,100440.94
2023-09-10T00:47:59.166Z,100440.50
2023-09-10T00:53:05.894Z,100444.59
2023-09-10T00:58:16.032Z,100482.25
2023-09-10T01:03:28.682Z,100456.59
2023-09-10T01:08:39.020Z,100453.47
2023-09-10T01:14:20.279Z,100439.81
2023-09-10T01:19:50.067Z,100474.25
2023-09-10T01:25:01.013Z,100459.94
2023-09-10T01:30:07.042Z,100463.13
2023-09-10T01:35:18.337Z,100431.19
2023-09-10T01:40:29.828Z,100455.13
2023-09-10T01:45:39.117Z,100467.44
2023-09-10T01:50:46.870Z,100435.56
2023-09-10T01:56:05.520Z,100487.53
2023-09-10T02:01:21.757Z,100442.84
2023-09-10T02:06:27.823Z,100446.28
2023-09-10T02:11:33.643Z,100420.94
2023-09-10T02:16:41.779Z,100420.00
2023-09-10T02:21:47.706Z,100413.97
2023-09-10T02:26:53.790Z,100405.56
2023-09-10T02:31:59.226Z,100398.44
2023-09-10T02:37:05.474Z,100406.97
2023-09-10T02:42:11.923Z,100380.34
2023-09-10T02:47:18.569Z,100383.50
2023-09-10T02:53:33.492Z,100398.44
2023-09-10T02:59:00.109Z,100391.91
2023-09-10T03:04:11.525Z,100413.44
2023-09-10T03:09:25.853Z,100351.91
2023-09-10T03:14:30.933Z,100360.09
2023-09-10T03:19:38.029Z,100347.81
2023-09-10T03:24:43.368Z,100372.38
2023-09-10T03:29:48.949Z,100343.69
2023-09-10T03:34:54.558Z,100338.19
2023-09-10T03:40:00.055Z,100328.09
2023-09-10T03:45:05.484Z,100321.06
2023-09-10T03:50:14.187Z,100316.50
2023-09-10T03:55:19.472Z,100311.47
2023-09-10T04:00:25.960Z,100323.03
2023-09-10T04:05:31.607Z,100301.38
2023-09-10T04:10:36.845Z,100297.38
2023-09-10T04:15:42.628Z,100287.78
2023-09-10T04:20:49.702Z,100290.78
2023-09-10T04:25:54.943Z,100280.09
2023-09-10T04:31:00.659Z,100278.56
2023-09-10T04:36:07.339Z,100265.88
2023-09-10T04:41:14.357Z,100268.91
2023-09-10T04:46:21.561Z,100244.41
2023-09-10T04:51:27.593Z,100238.03
2023-09-10T04:56:33.319Z,100257.53
2023-09-10T05:01:39.755Z,100223.16
2023-09-10T05:06:47.555Z,100203.09
2023-09-10T05:11:54.105Z,100203.97
2023-09-10T05:17:02.368Z,100212.38
2023-09-10T05:22:07.892Z,100199.63
2023-09-10T05:27:16.305Z,100187.97
2023-09-10T05:32:21.725Z,100192.00
2023-09-10T05:37:27.332Z,100187.56
2023-09-10T05:42:35.769Z,100195.59
2023-09-10T05:47:41.227Z,100192.81
2023-09-10T05:52:48.154Z,100182.78
2023-09-10T05:57:57.823Z,100170.63
2023-09-10T06:03:03.500Z,100163.06
2023-09-10T06:08:09.208Z,100211.78
2023-09-10T06:13:17.682Z,100145.94
2023-09-10T06:18:24.301Z,100143.75
2023-09-10T06:23:29.575Z,100149.41
2023-09-10T06:28:36.907Z,100144.00
2023-09-10T06:33:43.124Z,100144.56
2023-09-10T06:38:50.464Z,100128.53
2023-09-10T06:44:00.534Z,100136.69
2023-09-10T06:49:24.893Z,100202.69
2023-09-10T06:55:00.870Z,100153.97
2023-09-10T07:00:10.517Z,100151.59
2023-09-10T07:05:17.892Z,100143.50
2023-09-10T07:29:45.339Z,100114.69
2023-09-10T07:34:55.375Z,100112.31
2023-09-10T07:40:00.679Z,100116.91
2023-09-10T07:45:08.064Z,100116.34
2023-09-10T07:50:15.008Z,100120.06
2023-09-10T07:55:20.143Z,100110.38
2023-09-10T08:00:27.709Z,100114.38
2023-09-10T08:05:33.844Z,100120.03
2023-09-10T08:10:39.966Z,100105.72
2023-09-10T08:15:47.786Z,100101.66
2023-09-10T08:20:54.665Z,100133.66
2023-09-10T08:26:05.865Z,100122.06
2023-09-10T08:31:13.987Z,100149.00
2023-09-10T08:36:38.808Z,100097.31
2023-09-10T08:42:00.840Z,100119.97
2023-09-10T08:47:08.602Z,100090.56
2023-09-10T08:52:15.520Z,100090.22
2023-09-10T08:57:21.921Z,100131.47
2023-09-10T09:02:29.448Z,100092.91
2023-09-10T09:07:46.423Z,100118.81
2023-09-10T09:13:00.573Z,100073.22
2023-09-10T09:18:06.490Z,100074.06
2023-09-10T09:23:48.045Z,100070.53
2023-09-10T09:28:55.711Z,100102.53
2023-09-10T09:34:01.370Z,100073.16
2023-09-10T09:39:11.243Z,100077.50
2023-09-10T09:44:18.371Z,100089.84
2023-09-10T09:49:24.443Z,100094.38
2023-09-10T09:54:31.149Z,100088.44
2023-09-10T09:59:42.382Z,100101.34
2023-09-10T10:04:52.897Z,100064.69
2023-09-10T10:10:01.525Z,100069.50
2023-09-10T10:15:10.232Z,100054.44
2023-09-10T10:20:17.732Z,100085.09
2023-09-10T10:25:24.798Z,100070.81
2023-09-10T10:30:33.592Z,100051.97
2023-09-10T10:35:46.039Z,100061.09
2023-09-10T10:40:56.489Z,100045.19
2023-09-10T10:46:05.784Z,100056.25
2023-09-10T10:51:15.173Z,100077.19
2023-09-10T10:56:22.225Z,100072.03
2023-09-10T11:01:32.675Z,100099.72
2023-09-10T11:06:58.258Z,100091.66
2023-09-10T11:12:09.688Z,100089.19
2023-09-10T11:17:29.750Z,100086.75
2023-09-10T11:23:11.360Z,100091.56
2023-09-10T11:29:13.697Z,100104.22
2023-09-10T11:34:26.122Z,100108.75
2023-09-10T11:39:34.415Z,100111.69
2023-09-10T11:44:39.861Z,100113.34
2023-09-10T11:49:46.144Z,100148.56
2023-09-10T11:54:52.412Z,100103.63
2023-09-10T12:00:08.482Z,100121.88
2023-09-10T12:05:20.391Z,100104.69
2023-09-10T12:10:24.933Z,100130.81
2023-09-10T12:15:32.059Z,100139.13
2023-09-10T12:20:39.065Z,100198.31
2023-09-10T12:25:46.298Z,100186.47
2023-09-10T12:30:52.645Z,100164.16
2023-09-10T12:35:59.125Z,100191.06
2023-09-10T12:41:04.437Z,100206.41
2023-09-10T12:46:10.995Z,100183.00
2023-09-10T12:51:16.686Z,100184.88
2023-09-10T12:56:22.145Z,100200.44
2023-09-10T13:01:28.462Z,100169.78
2023-09-10T13:06:40.446Z,100241.88
2023-09-10T13:11:49.399Z,100180.78
2023-09-10T13:16:55.427Z,100179.97
2023-09-10T13:22:01.629Z,100164.88
2023-09-10T13:27:06.919Z,100199.84
2023-09-10T13:32:11.382Z,100174.81
2023-09-10T13:37:16.690Z,100150.59
2023-09-10T13:42:24.310Z,100163.00
2023-09-10T13:47:31.112Z,100139.03
2023-09-10T13:52:36.399Z,100129.56
2023-09-10T13:57:42.826Z,100142.19
2023-09-10T14:02:50.949Z,100158.59
2023-09-10T14:07:56.216Z,100148.63
2023-09-10T14:13:02.532Z,100172.84
2023-09-10T14:18:09.011Z,100125.25
2023-09-10T14:23:17.268Z,100126.28
2023-09-10T14:28:27.037Z,100125.25
2023-09-10T14:33:34.212Z,100125.47
2023-09-10T14:38:39.642Z,100121.97
2023-09-10T14:43:44.929Z,100142.69
2023-09-10T14:48:50.255Z,100129.22
2023-09-10T14:53:55.493Z,100121.16
2023-09-10T14:59:00.874Z,100115.53
2023-09-10T15:04:10.773Z,100123.84
2023-09-10T15:09:16.934Z,100120.34
2023-09-10T15:14:22.020Z,100105.00
2023-09-10T15:19:29.658Z,100096.38
2023-09-10T15:24:39.010Z,100144.22
2023-09-10T15:29:44.347Z,100102.81
2023-09-10T15:34:49.356Z,100118.97
2023-09-10T15:39:54.423Z,100076.72
2023-09-10T15:44:59.912Z,100073.22
2023-09-10T15:50:05.617Z,100061.88
2023-09-10T15:55:11.553Z,100064.56
2023-09-10T16:00:19.414Z,100073.72
2023-09-10T16:05:25.976Z,100078.28
2023-09-10T16:10:31.778Z,100065.63
2023-09-10T16:15:36.787Z,100064.22
2023-09-10T16:20:42.124Z,100047.84
2023-09-10T16:25:48.930Z,100044.59
2023-09-10T16:30:54.533Z,100059.94
2023-09-10T16:35:59.568Z,100053.97
2023-09-10T16:41:05.300Z,100036.19
2023-09-10T16:46:13.874Z,100042.38
2023-09-10T16:51:20.959Z,100031.84
2023-09-10T16:56:29.302Z,100046.97
2023-09-10T17:01:39.265Z,100042.38
2023-09-10T17:06:47.732Z,100081.38
2023-09-10T17:11:53.996Z,100032.94
2023-09-10T17:16:58.936Z,100033.19
2023-09-10T17:22:03.880Z,100043.38
2023-09-10T17:27:10.487Z,100009.94
2023-09-10T17:32:18.006Z,100033.09
2023-09-10T17:37:26.935Z,100040.13
2023-09-10T17:42:34.325Z,100023.97
2023-09-10T17:47:41.779Z,100024.22
2023-09-10T17:52:46.801Z,100027.72
2023-09-10T17:57:52.962Z,100013.22
2023-09-10T18:02:58.151Z,100043.22
2023-09-10T18:08:05.026Z,100046.47
2023-09-10T18:13:11.231Z,100021.94
2023-09-10T18:18:18.544Z,100016.81
2023-09-10T18:23:23.409Z,100036.69
2023-09-10T18:28:29.549Z,99991.19
2023-09-10T18:33:41.318Z,100005.72
2023-09-10T18:38:57.311Z,100009.44
2023-09-10T18:44:02.189Z,100003.50
2023-09-10T18:49:08.421Z,99985.47
2023-09-10T18:54:13.600Z,99980.09
2023-09-10T18:59:20.140Z,99968.78
2023-09-10T19:04:26.920Z,100017.41
2023-09-10T19:09:34.040Z,99963.59
2023-09-10T19:14:38.978Z,100005.03
2023-09-10T19:19:43.456Z,99966.53
2023-09-10T19:24:48.224Z,99990.44
2023-09-10T19:29:57.536Z,99968.09
2023-09-10T19:35:02.608Z,99966.47
2023-09-10T19:40:07.854Z,99967.53
2023-09-10T19:45:19.576Z,99970.47
2023-09-10T19:50:25.775Z,100003.78
2023-09-10T19:55:31.475Z,99999.00
2023-09-10T20:00:36.507Z,99975.84
2023-09-10T20:05:45.769Z,99995.47
2023-09-10T20:10:50.832Z,99989.78
2023-09-10T20:15:56.975Z,99985.47
2023-09-10T20:21:01.853Z,99974.47
2023-09-10T20:26:07.910Z,99974.72
2023-09-10T20:31:12.925Z,99974.72
2023-09-10T20:36:18.143Z,99981.72
2023-09-10T20:41:24.955Z,99991.66
2023-09-10T20:46:32.050Z,100050.00
2023-09-10T20:51:39.077Z,100020.44
2023-09-10T20:56:48.904Z,99974.72
2023-09-10T21:01:54.218Z,100010.47
2023-09-10T21:06:59.701Z,99969.09
2023-09-10T21:12:05.220Z,99991.41
2023-09-10T21:17:15.615Z,99979.00
2023-09-10T21:22:22.941Z,99998.69
2023-09-10T21:27:29.411Z,100020.09
2023-09-10T21:32:35.664Z,100021.97
2023-09-10T21:37:42.552Z,100011.19
2023-09-10T21:42:48.249Z,100041.84
2023-09-10T21:47:54.656Z,100074.13
2023-09-10T21:53:00.382Z,100093.41
2023-09-10T21:58:13.984Z,100058.94
2023-09-10T22:03:21.239Z,100039.56
2023-09-10T22:08:28.497Z,100044.34
2023-09-10T22:13:34.802Z,100073.59
2023-09-10T22:18:40.653Z,100046.94
2023-09-10T22:23:48.625Z,100073.69
2023-09-10T22:28:54.375Z,100074.75
2023-09-10T22:34:00.824Z,100096.25
2023-09-10T22:39:08.964Z,100095.44
2023-09-10T22:44:14.712Z,100084.44
2023-09-10T22:49:21.228Z,100100.34
2023-09-10T22:54:28.773Z,100103.59
2023-09-10T22:59:34.661Z,100108.50
2023-09-10T23:04:39.986Z,100126.03
2023-09-10T23:09:45.987Z,100125.31
2023-09-10T23:14:54.378Z,100128.91
2023-09-10T23:20:02.526Z,100149.44
2023-09-10T23:25:07.634Z,100133.19
2023-09-10T23:30:16.317Z,100153.66
2023-09-10T23:35:22.908Z,100197.03
2023-09-10T23:40:28.190Z,100144.13
2023-09-10T23:45:35.102Z,100137.22
2023-09-10T23:50:40.792Z,100163.16
2023-09-10T23:55:46.385Z,100177.28
